createdAt,value
2022-08-11T00:00:09.064Z,90.70
2022-08-11T00:05:16.925Z,91.00
2022-08-11T00:10:24.367Z,91.50
2022-08-11T00:15:29.267Z,92.10
2022-08-11T00:20:32.827Z,92.70
2022-08-11T00:25:48.932Z,92.80
2022-08-11T00:30:52.565Z,93.30
2022-08-11T00:35:59.664Z,94.10
2022-08-11T00:41:26.191Z,94.70
2022-08-11T00:46:35.385Z,95.60
2022-08-11T00:52:05.673Z,96.00
2022-08-11T00:57:38.708Z,95.90
2022-08-11T01:02:48.803Z,96.70
2022-08-11T01:08:14.604Z,97.60
2022-08-11T01:13:48.452Z,98.30
2022-08-11T01:19:06.549Z,99.20
2022-08-11T01:24:45.747Z,99.90
2022-08-11T01:30:15.219Z,99.90
2022-08-11T01:35:55.305Z,99.90
2022-08-11T01:41:17.283Z,99.90
2022-08-11T01:46:28.015Z,99.90
2022-08-11T01:51:51.958Z,99.90
2022-08-11T01:57:09.847Z,99.90
2022-08-11T02:02:44.473Z,99.90
2022-08-11T02:08:15.260Z,99.90
2022-08-11T02:13:53.693Z,99.90
2022-08-11T02:19:26.870Z,99.90
2022-08-11T02:24:39.901Z,99.90
2022-08-11T02:30:07.404Z,99.90
2022-08-11T02:35:19.312Z,99.90
2022-08-11T02:40:46.914Z,99.90
2022-08-11T02:45:54.631Z,99.90
2022-08-11T02:51:12.490Z,99.90
2022-08-11T02:56:31.409Z,99.90
2022-08-11T03:01:45.568Z,99.90
2022-08-11T03:06:59.648Z,99.90
2022-08-11T03:12:36.685Z,99.90
2022-08-11T03:17:59.121Z,99.90
2022-08-11T03:23:20.119Z,99.90
2022-08-11T03:29:04.425Z,99.90
2022-08-11T03:34:26.847Z,99.90
2022-08-11T03:39:51.091Z,99.90
2022-08-11T03:45:17.388Z,99.90
2022-08-11T03:50:28.965Z,99.90
2022-08-11T03:55:34.653Z,99.90
2022-08-11T04:00:59.078Z,99.90
2022-08-11T04:06:42.868Z,99.90
2022-08-11T04:11:44.501Z,99.90
2022-08-11T04:17:09.238Z,99.90
2022-08-11T04:22:25.139Z,99.90
2022-08-11T04:27:53.015Z,99.90
2022-08-11T04:33:34.950Z,99.90
2022-08-11T04:39:23.975Z,99.90
2022-08-11T04:45:02.599Z,99.90
2022-08-11T04:51:16.614Z,99.90
2022-08-11T04:56:41.904Z,99.90
2022-08-11T05:02:17.152Z,99.90
2022-08-11T05:07:52.521Z,99.90
2022-08-11T05:13:21.898Z,99.90
2022-08-11T05:18:44.685Z,99.90
2022-08-11T05:24:16.788Z,99.90
2022-08-11T05:29:47.300Z,99.90
2022-08-11T05:34:56.280Z,99.90
2022-08-11T05:40:20.089Z,99.90
2022-08-11T05:45:58.178Z,99.90
2022-08-11T05:51:30.314Z,99.90
2022-08-11T05:56:35.215Z,99.90
2022-08-11T06:01:37.449Z,99.90
2022-08-11T06:06:51.255Z,99.90
2022-08-11T06:11:54.602Z,99.90
2022-08-11T06:16:59.492Z,99.90
2022-08-11T06:22:02.980Z,99.90
2022-08-11T06:27:12.767Z,99.90
2022-08-11T06:32:16.389Z,99.90
2022-08-11T06:37:41.016Z,99.90
2022-08-11T06:43:05.740Z,99.90
2022-08-11T06:48:16.745Z,99.90
2022-08-11T06:53:19.867Z,99.90
2022-08-11T06:58:41.580Z,99.90
2022-08-11T07:03:47.739Z,99.90
2022-08-11T07:09:14.294Z,99.90
2022-08-11T07:14:43.285Z,99.90
2022-08-11T07:20:10.200Z,99.90
2022-08-11T07:25:33.973Z,99.90
2022-08-11T07:30:39.963Z,99.90
2022-08-11T07:35:51.621Z,99.90
2022-08-11T07:40:53.521Z,99.90
2022-08-11T07:46:14.656Z,99.90
2022-08-11T07:51:41.283Z,99.90
2022-08-11T07:56:55.576Z,99.90
2022-08-11T08:02:24.049Z,99.90
2022-08-11T08:07:50.142Z,99.90
2022-08-11T08:13:11.606Z,99.90
2022-08-11T08:18:26.787Z,99.90
2022-08-11T08:23:35.743Z,99.90
2022-08-11T08:28:37.725Z,99.90
2022-08-11T08:33:42.060Z,99.90
2022-08-11T08:38:54.199Z,99.90
2022-08-11T08:44:34.635Z,99.90
2022-08-11T08:49:40.421Z,99.90
2022-08-11T08:54:44.484Z,99.50
2022-08-11T08:59:51.605Z,98.30
2022-08-11T09:04:53.922Z,97.60
2022-08-11T09:09:58.881Z,96.60
2022-08-11T09:15:04.023Z,95.60
2022-08-11T09:20:22.146Z,93.60
2022-08-11T09:25:46.312Z,92.00
2022-08-11T09:30:53.535Z,90.90
2022-08-11T09:35:56.258Z,90.70
2022-08-11T09:41:00.048Z,88.10
2022-08-11T09:46:03.382Z,86.70
2022-08-11T09:51:07.046Z,84.10
2022-08-11T09:56:34.225Z,84.30
2022-08-11T10:01:43.540Z,85.90
2022-08-11T10:07:05.412Z,81.30
2022-08-11T10:12:19.869Z,80.50
2022-08-11T10:17:23.401Z,79.20
2022-08-11T10:22:45.328Z,76.80
2022-08-11T10:28:18.422Z,77.30
2022-08-11T10:33:42.852Z,78.40
2022-08-11T10:38:52.451Z,77.90
2022-08-11T10:44:03.037Z,77.00
2022-08-11T10:49:06.989Z,77.20
2022-08-11T10:54:27.755Z,75.90
2022-08-11T10:59:30.314Z,76.70
2022-08-11T11:05:28.060Z,74.30
2022-08-11T11:10:30.821Z,74.20
2022-08-11T11:15:55.527Z,73.30
2022-08-11T11:21:15.369Z,73.40
2022-08-11T11:26:36.002Z,72.80
2022-08-11T11:31:59.043Z,73.90
2022-08-11T11:37:01.708Z,71.90
2022-08-11T11:42:07.909Z,71.80
2022-08-11T11:47:12.261Z,71.10
2022-08-11T11:52:18.157Z,70.80
2022-08-11T11:57:40.186Z,71.70
2022-08-11T12:02:43.412Z,69.90
2022-08-11T12:08:10.477Z,69.40
2022-08-11T12:13:36.778Z,68.60
2022-08-11T12:18:40.657Z,69.00
2022-08-11T12:24:04.652Z,67.50
2022-08-11T12:29:10.512Z,68.10
2022-08-11T12:34:15.707Z,68.30
2022-08-11T12:40:16.123Z,65.40
2022-08-11T12:45:30.473Z,66.00
2022-08-11T12:50:52.195Z,65.10
2022-08-11T12:56:17.537Z,64.80
2022-08-11T13:01:38.822Z,64.70
2022-08-11T13:06:42.504Z,64.60
2022-08-11T13:12:03.866Z,65.60
2022-08-11T13:17:21.689Z,64.40
2022-08-11T13:22:47.208Z,65.20
2022-08-11T13:32:59.936Z,63.00
2022-08-11T13:38:19.675Z,63.60
2022-08-11T13:43:23.230Z,63.70
2022-08-11T13:48:25.158Z,64.30
2022-08-11T13:53:29.693Z,63.80
2022-08-11T13:58:39.726Z,64.40
2022-08-11T14:04:31.021Z,62.70
2022-08-11T14:09:09.638Z,62.90
2022-08-11T14:14:17.565Z,62.50
2022-08-11T14:19:23.904Z,62.50
2022-08-11T14:24:26.745Z,61.50
2022-08-11T14:29:29.701Z,61.00
2022-08-11T14:34:34.541Z,60.70
2022-08-11T14:39:47.466Z,60.80
2022-08-11T14:45:14.772Z,60.40
2022-08-11T14:50:24.704Z,60.70
2022-08-11T14:55:51.338Z,60.10
2022-08-11T15:01:24.199Z,59.30
2022-08-11T15:06:28.611Z,59.20
2022-08-11T15:11:50.607Z,59.10
2022-08-11T15:17:11.614Z,59.00
2022-08-11T15:22:32.237Z,59.50
2022-08-11T15:27:54.105Z,59.60
2022-08-11T15:33:15.619Z,59.60
2022-08-11T15:38:20.724Z,59.30
2022-08-11T15:43:54.535Z,59.20
2022-08-11T15:49:01.627Z,59.50
2022-08-11T15:54:11.640Z,59.60
2022-08-11T15:59:41.839Z,60.00
2022-08-11T16:04:47.309Z,59.40
2022-08-11T16:09:51.907Z,59.40
2022-08-11T16:15:20.216Z,59.00
2022-08-11T16:20:26.089Z,59.00
2022-08-11T16:27:04.128Z,59.90
2022-08-11T16:30:53.288Z,59.20
2022-08-11T16:36:14.290Z,59.40
2022-08-11T16:41:38.430Z,59.70
2022-08-11T16:46:58.945Z,59.40
2022-08-11T16:52:03.954Z,60.40
2022-08-11T16:57:47.637Z,60.60
2022-08-11T17:03:15.950Z,61.10
2022-08-11T17:08:39.809Z,60.30
2022-08-11T17:13:52.519Z,60.80
2022-08-11T17:19:13.543Z,61.30
2022-08-11T17:24:16.371Z,60.80
2022-08-11T17:29:25.209Z,61.10
2022-08-11T17:35:00.536Z,61.00
2022-08-11T17:40:07.114Z,62.30
2022-08-11T17:45:29.170Z,61.60
2022-08-11T17:50:31.568Z,62.20
2022-08-11T17:55:54.210Z,61.40
2022-08-11T18:00:57.166Z,62.70
2022-08-11T18:06:04.657Z,63.90
2022-08-11T18:12:10.464Z,64.00
2022-08-11T18:17:07.889Z,64.80
2022-08-11T18:22:34.920Z,65.60
2022-08-11T18:27:59.486Z,66.00
2022-08-11T18:39:05.651Z,68.30
2022-08-11T18:44:28.917Z,69.80
2022-08-11T18:50:03.865Z,70.40
2022-08-11T18:55:30.023Z,71.10
2022-08-11T19:00:52.691Z,71.40
2022-08-11T19:06:38.801Z,72.10
2022-08-11T19:11:59.801Z,72.40
2022-08-11T19:17:43.911Z,73.00
2022-08-11T19:23:03.197Z,74.00
2022-08-11T19:28:25.783Z,75.10
2022-08-11T19:34:00.294Z,75.10
2022-08-11T19:39:30.255Z,75.90
2022-08-11T19:44:50.897Z,76.60
2022-08-11T19:50:13.082Z,76.20
2022-08-11T19:55:34.943Z,76.50
2022-08-11T20:00:56.280Z,77.60
2022-08-11T20:06:20.649Z,78.60
2022-08-11T20:11:41.729Z,79.50
2022-08-11T20:17:02.073Z,81.00
2022-08-11T20:22:24.528Z,82.10
2022-08-11T20:27:45.341Z,83.20
2022-08-11T20:33:06.988Z,83.00
2022-08-11T20:38:28.218Z,83.40
2022-08-11T20:44:06.127Z,83.90
2022-08-11T20:49:41.288Z,84.60
2022-08-11T20:55:10.808Z,85.40
2022-08-11T21:00:40.021Z,86.30
2022-08-11T21:06:10.226Z,85.60
2022-08-11T21:11:33.556Z,84.30
2022-08-11T21:16:55.461Z,85.50
2022-08-11T21:22:20.996Z,86.00
2022-08-11T21:27:51.590Z,86.30
2022-08-11T21:33:13.455Z,87.40
2022-08-11T21:38:36.469Z,88.00
2022-08-11T21:43:58.414Z,88.40
2022-08-11T21:49:20.865Z,89.50
2022-08-11T21:54:44.233Z,89.60
2022-08-11T22:00:11.439Z,90.30
2022-08-11T22:05:35.409Z,90.50
2022-08-11T22:10:56.816Z,91.00
2022-08-11T22:16:18.707Z,91.00
2022-08-11T22:22:01.471Z,90.80
2022-08-11T22:27:20.446Z,91.40
2022-08-11T22:32:41.468Z,91.30
2022-08-11T22:38:04.206Z,91.50
2022-08-11T22:43:24.683Z,91.90
2022-08-11T22:48:49.271Z,92.20
2022-08-11T22:54:12.996Z,92.90
2022-08-11T22:59:34.826Z,93.10
2022-08-11T23:04:56.848Z,93.00
2022-08-11T23:10:18.239Z,93.80
2022-08-11T23:15:39.179Z,93.90
2022-08-11T23:21:01.595Z,94.20
2022-08-11T23:26:22.454Z,94.70
2022-08-11T23:31:51.191Z,94.90
2022-08-11T23:37:13.441Z,95.70
2022-08-11T23:42:36.024Z,96.30
2022-08-11T23:47:57.990Z,97.00
2022-08-11T23:53:18.720Z,97.70
2022-08-11T23:58:39.280Z,98.70
